createdAt,value
2018-09-23T00:00:00.440Z,95935.5
2018-09-23T00:01:02.871Z,95938.5
2018-09-23T00:02:05.310Z,95929.2
2018-09-23T00:03:07.751Z,95938.1
2018-09-23T00:04:10.197Z,95940
2018-09-23T00:05:12.632Z,95933.4
2018-09-23T00:06:14.806Z,95938
2018-09-23T00:07:17.243Z,95929.3
2018-09-23T00:08:19.670Z,95938.4
2018-09-23T00:09:22.097Z,95937.2
2018-09-23T00:10:24.255Z,95935.3
2018-09-23T00:11:26.696Z,95930.1
2018-09-23T00:12:29.144Z,95934.9
2018-09-23T00:13:31.287Z,95936.6
2018-09-23T00:14:33.721Z,95936.9
2018-09-23T00:15:36.153Z,95933.7
2018-09-23T00:16:38.577Z,95931.6
2018-09-23T00:17:40.998Z,95935.1
2018-09-23T00:18:43.173Z,95933.5
2018-09-23T00:19:45.601Z,95934.5
2018-09-23T00:20:48.034Z,95935.7
2018-09-23T00:21:50.464Z,95930.9
2018-09-23T00:22:52.908Z,95932.2
2018-09-23T00:23:55.347Z,95937.6
2018-09-23T00:24:57.776Z,95933.1
2018-09-23T00:26:00.209Z,95937.7
2018-09-23T00:27:02.638Z,95930.9
2018-09-23T00:28:05.070Z,95930.5
2018-09-23T00:29:07.499Z,95928.7
2018-09-23T00:30:09.935Z,95933.8
2018-09-23T00:31:12.365Z,95928.6
2018-09-23T00:32:14.833Z,95930.2
2018-09-23T00:33:17.000Z,95927.2
2018-09-23T00:34:19.428Z,95929.4
2018-09-23T00:35:21.862Z,95925.9
2018-09-23T00:36:24.020Z,95921.5
2018-09-23T00:37:26.467Z,95920.7
2018-09-23T00:38:28.896Z,95920.5
2018-09-23T00:39:31.339Z,95916.2
2018-09-23T00:40:33.761Z,95921.1
2018-09-23T00:41:36.190Z,95912.9
2018-09-23T00:42:38.630Z,95914.1
2018-09-23T00:43:40.769Z,95911.3
2018-09-23T00:44:42.921Z,95908.7
2018-09-23T00:45:45.352Z,95911.3
2018-09-23T00:46:47.786Z,95911.6
2018-09-23T00:47:50.214Z,95910.1
2018-09-23T00:48:52.657Z,95909.7
2018-09-23T00:49:55.109Z,95909.3
2018-09-23T00:50:57.252Z,95909.8
2018-09-23T00:51:59.695Z,95907.2
2018-09-23T00:53:02.116Z,95901.5
2018-09-23T00:54:04.549Z,95899.3
2018-09-23T00:55:06.978Z,95900.6
2018-09-23T00:56:09.405Z,95895.1
2018-09-23T00:57:11.854Z,95902.6
2018-09-23T00:58:14.286Z,95901.6
2018-09-23T00:59:16.721Z,95903
2018-09-23T01:00:19.151Z,95895.9
2018-09-23T01:01:21.583Z,95897.5
2018-09-23T01:02:24.017Z,95899.1
2018-09-23T01:03:26.456Z,95893.4
2018-09-23T01:04:28.631Z,95894.5
2018-09-23T01:05:30.784Z,95896.8
2018-09-23T01:06:33.224Z,95892.7
2018-09-23T01:07:35.664Z,95900.2
2018-09-23T01:08:38.093Z,95897.2
2018-09-23T01:09:40.521Z,95900
2018-09-23T01:10:42.684Z,95895.9
2018-09-23T01:11:45.119Z,95897.9
2018-09-23T01:12:47.552Z,95895.7
2018-09-23T01:13:50.026Z,95898.5
2018-09-23T01:14:52.454Z,95899.2
2018-09-23T01:15:54.887Z,95901.5
2018-09-23T01:16:57.037Z,95893.9
2018-09-23T01:17:59.476Z,95894.5
2018-09-23T01:19:01.915Z,95893.8
2018-09-23T01:20:04.345Z,95892.4
2018-09-23T01:21:06.776Z,95892.2
2018-09-23T01:22:09.208Z,95889.9
2018-09-23T01:23:11.639Z,95891
2018-09-23T01:24:14.066Z,95890.1
2018-09-23T01:25:16.509Z,95892.1
2018-09-23T01:26:18.948Z,95887.8
2018-09-23T01:27:21.376Z,95885.2
2018-09-23T01:28:23.815Z,95883.3
2018-09-23T01:29:26.243Z,95885.4
2018-09-23T01:30:28.672Z,95885.3
2018-09-23T01:31:30.544Z,95887.5
2018-09-23T01:32:32.976Z,95886.9
2018-09-23T01:33:35.405Z,95886.4
2018-09-23T01:34:37.841Z,95877.4
2018-09-23T01:35:40.336Z,95880
2018-09-23T01:36:42.496Z,95878.3
2018-09-23T01:37:44.929Z,95875.5
2018-09-23T01:38:47.354Z,95876.2
2018-09-23T01:39:49.791Z,95875.4
2018-09-23T01:40:52.221Z,95876.2
2018-09-23T01:41:54.676Z,95872.4
2018-09-23T01:42:57.105Z,95869.9
2018-09-23T01:43:59.548Z,95871.6
2018-09-23T01:45:01.973Z,95869.1
2018-09-23T01:46:04.404Z,95869.4
2018-09-23T01:47:06.555Z,95867.4
2018-09-23T01:48:08.996Z,95866.6
2018-09-23T01:49:11.427Z,95860.6
2018-09-23T01:50:13.861Z,95861.4
2018-09-23T01:51:16.303Z,95862.5
2018-09-23T01:52:18.166Z,95861.8
2018-09-23T01:53:20.605Z,95861.3
2018-09-23T01:54:23.062Z,95864.5
2018-09-23T01:55:25.485Z,95864.7
2018-09-23T01:56:27.917Z,95862.5
2018-09-23T01:57:30.361Z,95859.9
2018-09-23T01:58:32.800Z,95857.2
2018-09-23T01:59:35.229Z,95857.4
2018-09-23T02:00:37.107Z,95854.8
2018-09-23T02:01:39.272Z,95857.1
2018-09-23T02:02:41.705Z,95855.5
2018-09-23T02:03:43.892Z,95854.2
2018-09-23T02:04:46.323Z,95846.9
2018-09-23T02:05:48.765Z,95851.1
2018-09-23T02:06:51.195Z,95851
2018-09-23T02:07:53.070Z,95851.6
2018-09-23T02:08:55.499Z,95849.3
2018-09-23T02:09:57.658Z,95851.8
2018-09-23T02:11:00.096Z,95854.1
2018-09-23T02:12:02.531Z,95849.7
2018-09-23T02:13:04.978Z,95849.3
2018-09-23T02:14:07.406Z,95849.9
2018-09-23T02:15:09.838Z,95851.8
2018-09-23T02:16:12.262Z,95844.5
2018-09-23T02:17:14.419Z,95844.4
2018-09-23T02:18:16.846Z,95842.3
2018-09-23T02:19:19.279Z,95840.6
2018-09-23T02:20:21.703Z,95840.1
2018-09-23T02:21:24.134Z,95834.4
2018-09-23T02:22:26.576Z,95835.6
2018-09-23T02:23:29.003Z,95838.8
2018-09-23T02:24:31.424Z,95835.4
2018-09-23T02:25:33.561Z,95837.6
2018-09-23T02:26:35.989Z,95834.2
2018-09-23T02:27:38.408Z,95832.6
2018-09-23T02:28:40.838Z,95833
2018-09-23T02:29:43.275Z,95826.9
2018-09-23T02:30:45.705Z,95824.7
2018-09-23T02:31:48.159Z,95823.6
2018-09-23T02:32:50.578Z,95820.5
2018-09-23T02:33:53.008Z,95820.5
2018-09-23T02:34:55.439Z,95814.9
2018-09-23T02:35:57.877Z,95813.5
2018-09-23T02:37:00.306Z,95813.3
2018-09-23T02:38:02.747Z,95810.6
2018-09-23T02:39:05.233Z,95811.1
2018-09-23T02:40:07.417Z,95804.2
2018-09-23T02:41:09.565Z,95803.3
2018-09-23T02:42:11.996Z,95805
2018-09-23T02:43:14.442Z,95802.8
2018-09-23T02:44:16.877Z,95800.5
2018-09-23T02:45:19.303Z,95794.9
2018-09-23T02:46:21.184Z,95791.9
2018-09-23T02:47:23.635Z,95793.5
2018-09-23T02:48:26.064Z,95789.5
2018-09-23T02:49:28.496Z,95784.9
2018-09-23T02:50:30.925Z,95783.6
2018-09-23T02:51:33.065Z,95781.6
2018-09-23T02:52:35.498Z,95780.4
2018-09-23T02:53:37.958Z,95774.5
2018-09-23T02:54:40.384Z,95767.4
2018-09-23T02:55:42.812Z,95764.3
2018-09-23T02:56:44.973Z,95763.9
2018-09-23T02:57:47.136Z,95767.6
2018-09-23T02:58:49.564Z,95766
2018-09-23T02:59:51.993Z,95761.8
2018-09-23T03:00:54.441Z,95757.7
2018-09-23T03:01:56.878Z,95763.3
2018-09-23T03:02:59.302Z,95765.8
2018-09-23T03:04:01.745Z,95764.1
2018-09-23T03:05:04.228Z,95763.5
2018-09-23T03:06:06.350Z,95757.7
2018-09-23T03:07:08.782Z,95766.1
2018-09-23T03:08:11.223Z,95765.6
2018-09-23T03:09:13.385Z,95764.5
2018-09-23T03:10:15.812Z,95758.4
2018-09-23T03:11:17.965Z,95756
2018-09-23T03:12:20.396Z,95753.1
2018-09-23T03:13:22.825Z,95758
2018-09-23T03:14:25.260Z,95761.9
2018-09-23T03:15:27.688Z,95757
2018-09-23T03:16:29.824Z,95752.3
2018-09-23T03:17:32.246Z,95749.2
2018-09-23T03:18:34.404Z,95750
2018-09-23T03:19:36.831Z,95744
2018-09-23T03:20:39.258Z,95743.8
2018-09-23T03:21:41.691Z,95746.3
2018-09-23T03:22:44.147Z,95747.1
2018-09-23T03:23:46.593Z,95739.6
2018-09-23T03:24:48.750Z,95739.4
2018-09-23T03:25:51.171Z,95742.3
2018-09-23T03:26:53.622Z,95736
2018-09-23T03:27:56.091Z,95734.8
2018-09-23T03:28:58.523Z,95741.1
2018-09-23T03:30:00.950Z,95734.3
2018-09-23T03:31:03.087Z,95739.6
2018-09-23T03:32:05.556Z,95733.4
2018-09-23T03:33:07.991Z,95728.3
2018-09-23T03:34:10.421Z,95732.9
2018-09-23T03:35:12.842Z,95731.2
2018-09-23T03:36:15.275Z,95729.6
2018-09-23T03:37:17.704Z,95724.1
2018-09-23T03:38:20.136Z,95725.7
2018-09-23T03:39:22.584Z,95727.4
2018-09-23T03:40:25.013Z,95722.4
2018-09-23T03:41:27.474Z,95716.2
2018-09-23T03:42:29.906Z,95716.2
2018-09-23T03:43:32.338Z,95718.4
2018-09-23T03:44:34.762Z,95709.5
2018-09-23T03:45:37.209Z,95696.4
2018-09-23T03:46:39.635Z,95696.4
2018-09-23T03:47:42.064Z,95691.7
2018-09-23T03:48:44.494Z,95690.8
2018-09-23T03:49:46.925Z,95689.6
2018-09-23T03:50:49.361Z,95689
2018-09-23T03:51:51.799Z,95690.2
2018-09-23T03:52:54.229Z,95686.5
2018-09-23T03:53:56.658Z,95690.7
2018-09-23T03:54:59.084Z,95696.1
2018-09-23T03:56:01.240Z,95692.1
2018-09-23T03:57:03.677Z,95684.5
2018-09-23T03:58:06.390Z,95694.6
2018-09-23T03:59:09.013Z,95685
2018-09-23T04:00:11.450Z,95688.1
2018-09-23T04:01:13.876Z,95688.5
2018-09-23T04:02:16.304Z,95684.2
2018-09-23T04:03:18.746Z,95681.2
2018-09-23T04:04:21.187Z,95676.6
2018-09-23T04:05:23.618Z,95683.5
2018-09-23T04:06:26.047Z,95675.9
2018-09-23T04:07:28.510Z,95674.9
2018-09-23T04:08:30.948Z,95664.9
2018-09-23T04:09:33.377Z,95665.9
2018-09-23T04:10:35.810Z,95667.9
2018-09-23T04:11:38.249Z,95665.8
2018-09-23T04:12:40.687Z,95658
2018-09-23T04:13:42.856Z,95665.3
2018-09-23T04:14:45.292Z,95668.9
2018-09-23T04:15:47.733Z,95661.3
2018-09-23T04:16:50.167Z,95656
2018-09-23T04:17:52.598Z,95658.6
2018-09-23T04:18:55.022Z,95659.1
2018-09-23T04:19:56.919Z,95656
2018-09-23T04:20:59.340Z,95658.8
2018-09-23T04:22:01.775Z,95661.3
2018-09-23T04:23:04.217Z,95662.7
2018-09-23T04:24:06.637Z,95659.3
2018-09-23T04:25:08.826Z,95660.1
2018-09-23T04:26:11.252Z,95658.3
2018-09-23T04:27:13.677Z,95654.5
2018-09-23T04:28:16.113Z,95661.4
2018-09-23T04:29:18.534Z,95659.4
2018-09-23T04:30:20.957Z,95651.5
2018-09-23T04:31:23.401Z,95656.1
2018-09-23T04:32:25.832Z,95651.4
2018-09-23T04:33:28.257Z,95646.9
2018-09-23T04:34:30.686Z,95644.1
2018-09-23T04:35:32.847Z,95644.8
2018-09-23T04:36:35.282Z,95643.3
2018-09-23T04:37:37.717Z,95646.1
2018-09-23T04:38:40.143Z,95643.3
2018-09-23T04:39:42.577Z,95639.3
2018-09-23T04:40:45.012Z,95635.4
2018-09-23T04:41:47.450Z,95635.9
2018-09-23T04:42:49.885Z,95633
2018-09-23T04:43:52.322Z,95631.5
2018-09-23T04:44:54.979Z,95636.4
2018-09-23T04:45:57.547Z,95634.5
2018-09-23T04:46:59.974Z,95629.1
2018-09-23T04:48:02.417Z,95626.6
2018-09-23T04:49:04.844Z,95624.3
2018-09-23T04:50:07.277Z,95617.5
2018-09-23T04:51:09.716Z,95624
2018-09-23T04:52:11.864Z,95622.8
2018-09-23T04:53:14.297Z,95620.9
2018-09-23T04:54:16.722Z,95628.2
2018-09-23T04:55:19.508Z,95624.9
2018-09-23T04:56:21.956Z,95622.3
2018-09-23T04:57:24.105Z,95616.2
2018-09-23T04:58:26.537Z,95616.9
2018-09-23T04:59:28.674Z,95615.8
2018-09-23T05:00:31.105Z,95616.6
2018-09-23T05:01:33.538Z,95622.6
2018-09-23T05:02:35.967Z,95615.5
2018-09-23T05:03:38.401Z,95610.6
2018-09-23T05:04:40.832Z,95609.9
2018-09-23T05:05:43.264Z,95604.2
2018-09-23T05:06:45.739Z,95602.3
2018-09-23T05:07:48.160Z,95600.5
2018-09-23T05:08:50.587Z,95602.8
2018-09-23T05:09:53.015Z,95603.5
2018-09-23T05:10:55.451Z,95597.1
2018-09-23T05:11:57.895Z,95600.4
2018-09-23T05:13:00.368Z,95598.2
2018-09-23T05:14:02.858Z,95595.4
2018-09-23T05:15:05.302Z,95595.3
2018-09-23T05:16:07.737Z,95596.9
2018-09-23T05:17:10.168Z,95592.9
2018-09-23T05:18:12.604Z,95593.9
2018-09-23T05:19:14.757Z,95593
2018-09-23T05:20:16.919Z,95588.5
2018-09-23T05:21:19.077Z,95588
2018-09-23T05:22:21.563Z,95588.4
2018-09-23T05:23:24.023Z,95591.6
2018-09-23T05:24:26.187Z,95592.8
2018-09-23T05:25:28.607Z,95587.7
2018-09-23T05:26:31.036Z,95586.6
2018-09-23T05:27:33.213Z,95589.3
2018-09-23T05:28:35.642Z,95586.1
2018-09-23T05:29:38.072Z,95586.6
2018-09-23T05:30:40.509Z,95585.2
2018-09-23T05:31:42.941Z,95585.3
2018-09-23T05:32:45.368Z,95579.7
2018-09-23T05:33:47.521Z,95579.6
2018-09-23T05:34:49.959Z,95581
2018-09-23T05:35:52.386Z,95580.5
2018-09-23T05:36:54.828Z,95575.8
2018-09-23T05:37:57.255Z,95572.3
2018-09-23T05:38:59.687Z,95574.4
2018-09-23T05:40:01.819Z,95567.2
2018-09-23T05:41:04.247Z,95565.4
2018-09-23T05:42:06.688Z,95566.2
2018-09-23T05:43:08.832Z,95563.8
2018-09-23T05:44:11.422Z,95563.3
2018-09-23T05:45:13.868Z,95560.5
2018-09-23T05:46:16.310Z,95563.5
2018-09-23T05:47:18.735Z,95561
2018-09-23T05:48:21.161Z,95560.3
2018-09-23T05:49:23.359Z,95556
2018-09-23T05:50:25.795Z,95557.9
2018-09-23T05:51:28.231Z,95557.5
2018-09-23T05:52:30.656Z,95560
2018-09-23T05:53:32.820Z,95557.7
2018-09-23T05:54:35.251Z,95554.3
2018-09-23T05:55:37.405Z,95554.2
2018-09-23T05:56:39.842Z,95554.8
2018-09-23T05:57:42.005Z,95559.8
2018-09-23T05:58:44.442Z,95553.8
2018-09-23T05:59:46.871Z,95553.9
2018-09-23T06:00:49.302Z,95558.8
2018-09-23T06:01:51.734Z,95554.4
2018-09-23T06:02:54.168Z,95555.1
2018-09-23T06:03:56.594Z,95554.6
2018-09-23T06:04:59.035Z,95551.1
2018-09-23T06:06:01.483Z,95543.9
2018-09-23T06:07:03.911Z,95546.9
2018-09-23T06:08:06.347Z,95542
2018-09-23T06:09:08.775Z,95539.8
2018-09-23T06:10:11.205Z,95537.4
2018-09-23T06:11:13.972Z,95526.8
2018-09-23T06:12:16.432Z,95527.6
2018-09-23T06:13:18.873Z,95534.6
2018-09-23T06:14:21.331Z,95530.4
2018-09-23T06:15:23.767Z,95529.7
2018-09-23T06:16:26.207Z,95534
2018-09-23T06:17:28.645Z,95528.7
2018-09-23T06:18:31.337Z,95531.1
2018-09-23T06:19:33.976Z,95529
2018-09-23T06:20:36.404Z,95523.5
2018-09-23T06:21:38.843Z,95525.3
2018-09-23T06:22:41.277Z,95521.4
2018-09-23T06:23:43.725Z,95527.3
2018-09-23T06:24:46.169Z,95517.8
2018-09-23T06:25:48.614Z,95529
2018-09-23T06:26:51.050Z,95527
2018-09-23T06:27:53.499Z,95514.9
2018-09-23T06:28:55.935Z,95519.4
2018-09-23T06:29:58.106Z,95510.4
2018-09-23T06:31:00.553Z,95513.3
2018-09-23T06:32:02.979Z,95510.9
2018-09-23T06:33:05.396Z,95511.6
2018-09-23T06:34:08.068Z,95509
2018-09-23T06:35:10.594Z,95516.8
2018-09-23T06:36:13.046Z,95511.8
2018-09-23T06:37:15.483Z,95512.5
2018-09-23T06:38:17.923Z,95509.3
2018-09-23T06:39:20.363Z,95510.4
2018-09-23T06:40:22.829Z,95502.4
2018-09-23T06:41:25.258Z,95508.2
2018-09-23T06:42:27.699Z,95503.7
2018-09-23T06:43:30.171Z,95498.6
2018-09-23T06:44:32.608Z,95503.2
2018-09-23T06:45:35.110Z,95499.4
2018-09-23T06:46:37.325Z,95499.5
2018-09-23T06:47:39.534Z,95497.8
2018-09-23T06:48:41.994Z,95497.6
2018-09-23T06:49:44.437Z,95497.7
2018-09-23T06:50:46.865Z,95498.1
2018-09-23T06:51:49.295Z,95497.4
2018-09-23T06:52:51.728Z,95494.9
2018-09-23T06:53:54.166Z,95495.3
2018-09-23T06:54:56.599Z,95492.9
2018-09-23T06:55:59.025Z,95490.3
2018-09-23T06:57:01.368Z,95492.5
2018-09-23T06:58:03.959Z,95493.4
2018-09-23T06:59:06.384Z,95497.6
2018-09-23T07:00:08.834Z,95496.6
2018-09-23T07:01:11.004Z,95497.2
2018-09-23T07:02:13.447Z,95488.6
2018-09-23T07:03:15.875Z,95487.4
2018-09-23T07:04:18.301Z,95489.8
2018-09-23T07:05:20.723Z,95483.3
2018-09-23T07:06:23.156Z,95480.8
2018-09-23T07:07:25.600Z,95481.3
2018-09-23T07:08:28.033Z,95477.9
2018-09-23T07:09:30.458Z,95483.5
2018-09-23T07:10:33.108Z,95483
2018-09-23T07:11:35.538Z,95474.9
2018-09-23T07:12:37.970Z,95472.1
2018-09-23T07:13:40.409Z,95469.7
2018-09-23T07:14:42.847Z,95470.5
2018-09-23T07:15:44.728Z,95465.7
2018-09-23T07:16:47.212Z,95468.6
2018-09-23T07:17:49.775Z,95471.6
2018-09-23T07:18:52.286Z,95471.1
2018-09-23T07:19:54.732Z,95470.5
2018-09-23T07:20:57.187Z,95469.9
2018-09-23T07:21:59.634Z,95471.9
2018-09-23T07:23:02.081Z,95471
2018-09-23T07:24:05.218Z,95466.4
2018-09-23T07:25:07.887Z,95466.8
2018-09-23T07:26:10.337Z,95466.7
2018-09-23T07:27:12.775Z,95469.4
2018-09-23T07:28:15.221Z,95474.2
2018-09-23T07:29:17.658Z,95471.5
2018-09-23T07:30:20.078Z,95473.9
2018-09-23T07:31:22.524Z,95477.4
2018-09-23T07:32:25.028Z,95480
2018-09-23T07:33:27.515Z,95478.4
2018-09-23T07:34:30.012Z,95479
2018-09-23T07:35:32.474Z,95477.6
2018-09-23T07:36:34.938Z,95480.8
2018-09-23T07:37:37.359Z,95476.4
2018-09-23T07:38:39.795Z,95480
2018-09-23T07:39:42.465Z,95476.8
2018-09-23T07:40:44.917Z,95471.9
2018-09-23T07:41:47.369Z,95468.6
2018-09-23T07:42:49.810Z,95477.3
2018-09-23T07:43:52.238Z,95473.7
2018-09-23T07:44:54.679Z,95474.9
2018-09-23T07:45:57.118Z,95477.3
2018-09-23T07:46:59.562Z,95477.7
2018-09-23T07:48:02.031Z,95476.7
2018-09-23T07:49:04.322Z,95479.6
2018-09-23T07:50:06.751Z,95477.2
2018-09-23T07:51:08.884Z,95477.1
2018-09-23T07:52:11.357Z,95477.3
2018-09-23T07:53:13.524Z,95484.7
2018-09-23T07:54:15.958Z,95484.3
2018-09-23T07:55:18.396Z,95487.4
2018-09-23T07:56:20.951Z,95486.8
2018-09-23T07:57:23.407Z,95485.5
2018-09-23T07:58:25.854Z,95486.1
2018-09-23T07:59:28.297Z,95487.8
2018-09-23T08:00:30.487Z,95486.1
2018-09-23T08:01:32.926Z,95479.4
2018-09-23T08:02:35.357Z,95472.3
2018-09-23T08:03:38.126Z,95470.2
2018-09-23T08:04:40.276Z,95468.4
2018-09-23T08:05:42.720Z,95468.4
2018-09-23T08:06:44.907Z,95459.7
2018-09-23T08:07:47.070Z,95462.6
2018-09-23T08:08:49.493Z,95459.7
2018-09-23T08:09:51.928Z,95462.1
2018-09-23T08:10:54.092Z,95457
2018-09-23T08:11:56.248Z,95462.2
2018-09-23T08:12:59.991Z,95456
2018-09-23T08:14:05.532Z,95457.5
2018-09-23T08:15:09.074Z,95454.7
2018-09-23T08:16:11.551Z,95460
2018-09-23T08:17:14.187Z,95459.3
2018-09-23T08:18:16.638Z,95464.3
2018-09-23T08:19:19.453Z,95458.3
2018-09-23T08:20:22.552Z,95460
2018-09-23T08:21:25.597Z,95457.3
2018-09-23T08:22:28.046Z,95461.5
2018-09-23T08:23:30.480Z,95463.7
2018-09-23T08:24:32.908Z,95462.6
2018-09-23T08:25:35.648Z,95462.6
2018-09-23T08:26:38.843Z,95460.9
2018-09-23T08:27:41.377Z,95460.8
2018-09-23T08:28:43.843Z,95475.1
2018-09-23T08:29:46.335Z,95471.8
2018-09-23T08:30:48.871Z,95466.8
2018-09-23T08:31:51.343Z,95479.2
2018-09-23T08:32:53.926Z,95480
2018-09-23T08:33:56.404Z,95481
2018-09-23T08:34:58.825Z,95481.2
2018-09-23T08:36:01.259Z,95478.5
2018-09-23T08:37:03.738Z,95470.5
2018-09-23T08:38:06.233Z,95476.7
2018-09-23T08:39:08.683Z,95476
2018-09-23T08:40:10.561Z,95468.9
2018-09-23T08:41:12.998Z,95469.7
2018-09-23T08:42:15.170Z,95470.1
2018-09-23T08:43:17.858Z,95464.8
2018-09-23T08:44:20.412Z,95465.3
2018-09-23T08:45:22.843Z,95457.7
2018-09-23T08:46:25.281Z,95459.7
2018-09-23T08:47:27.726Z,95460
2018-09-23T08:48:30.339Z,95458.9
2018-09-23T08:49:32.830Z,95460.5
2018-09-23T08:50:35.255Z,95461.8
2018-09-23T08:51:37.750Z,95456.3
2018-09-23T08:52:40.181Z,95455.6
2018-09-23T08:53:42.619Z,95462.5
2018-09-23T08:54:45.082Z,95461.5
2018-09-23T08:55:47.509Z,95461.8
2018-09-23T08:56:49.950Z,95464.4
2018-09-23T08:57:52.746Z,95470.5
2018-09-23T08:58:54.947Z,95462.2
2018-09-23T08:59:57.425Z,95462.9
2018-09-23T09:00:59.859Z,95448.9
2018-09-23T09:02:02.289Z,95467.9
2018-09-23T09:03:04.741Z,95446.9
2018-09-23T09:04:07.162Z,95450.9
2018-09-23T09:05:09.594Z,95439.5
2018-09-23T09:06:11.757Z,95445.6
2018-09-23T09:07:14.222Z,95439
2018-09-23T09:08:16.655Z,95437.3
2018-09-23T09:09:19.106Z,95440.8
2018-09-23T09:10:21.528Z,95441.2
2018-09-23T09:11:24.034Z,95440.7
2018-09-23T09:12:26.505Z,95435.2
2018-09-23T09:13:28.946Z,95437.1
2018-09-23T09:14:31.371Z,95442.9
2018-09-23T09:15:33.813Z,95447.2
2018-09-23T09:16:36.251Z,95441.1
2018-09-23T09:17:38.721Z,95441.2
2018-09-23T09:18:42.148Z,95441.6
2018-09-23T09:19:45.116Z,95434
2018-09-23T09:20:47.546Z,95440.1
2018-09-23T09:21:49.707Z,95432.5
2018-09-23T09:22:52.158Z,95437.9
2018-09-23T09:23:54.308Z,95431.1
2018-09-23T09:24:56.748Z,95432.2
2018-09-23T09:25:59.188Z,95424.3
2018-09-23T09:27:01.879Z,95428.3
2018-09-23T09:28:04.385Z,95431.1
2018-09-23T09:29:06.839Z,95434.8
2018-09-23T09:30:09.323Z,95422.3
2018-09-23T09:31:11.794Z,95428
2018-09-23T09:32:13.965Z,95426.9
2018-09-23T09:33:16.558Z,95425.6
2018-09-23T09:34:18.994Z,95436.7
2018-09-23T09:35:21.709Z,95432.3
2018-09-23T09:36:24.174Z,95420.4
2018-09-23T09:37:26.332Z,95426.3
2018-09-23T09:38:29.285Z,95428.4
2018-09-23T09:39:31.801Z,95416.5
2018-09-23T09:40:34.263Z,95431.7
2018-09-23T09:41:36.695Z,95425.8
2018-09-23T09:42:39.146Z,95418.5
2018-09-23T09:43:41.580Z,95423.7
2018-09-23T09:44:43.745Z,95421
2018-09-23T09:45:46.177Z,95434.8
2018-09-23T09:46:48.654Z,95423.6
2018-09-23T09:47:50.801Z,95431.5
2018-09-23T09:48:53.241Z,95420
2018-09-23T09:49:55.687Z,95418.2
2018-09-23T09:50:58.130Z,95417.1
2018-09-23T09:52:00.558Z,95415.8
2018-09-23T09:53:03.001Z,95419.4
2018-09-23T09:54:05.461Z,95410.4
2018-09-23T09:55:07.890Z,95413.2
2018-09-23T09:56:10.329Z,95406.9
2018-09-23T09:57:12.785Z,95404.8
2018-09-23T09:58:15.238Z,95395.9
2018-09-23T09:59:17.668Z,95404.8
2018-09-23T10:00:20.127Z,95394.9
2018-09-23T10:01:22.572Z,95395.3
2018-09-23T10:02:25.006Z,95387.6
2018-09-23T10:03:27.156Z,95400.8
2018-09-23T10:04:29.602Z,95386.3
2018-09-23T10:05:32.041Z,95392.5
2018-09-23T10:06:34.487Z,95389.3
2018-09-23T10:07:36.644Z,95401.5
2018-09-23T10:08:39.103Z,95399.8
2018-09-23T10:09:41.530Z,95385.8
2018-09-23T10:10:43.989Z,95402.9
2018-09-23T10:11:46.410Z,95397.9
2018-09-23T10:12:48.855Z,95400.4
2018-09-23T10:13:51.341Z,95389.7
2018-09-23T10:14:53.782Z,95396.2
2018-09-23T10:15:56.205Z,95398.7
2018-09-23T10:16:58.369Z,95391
2018-09-23T10:18:00.849Z,95394.3
2018-09-23T10:19:03.296Z,95391.7
2018-09-23T10:20:05.740Z,95389.7
2018-09-23T10:21:08.198Z,95379.5
2018-09-23T10:22:10.369Z,95386.1
2018-09-23T10:23:13.245Z,95377.4
2018-09-23T10:24:15.897Z,95376.7
2018-09-23T10:25:18.333Z,95373.4
2018-09-23T10:26:20.780Z,95381.6
2018-09-23T10:27:22.979Z,95379.2
2018-09-23T10:28:25.414Z,95377.2
2018-09-23T10:29:27.847Z,95377.1
2018-09-23T10:30:30.329Z,95379.8
2018-09-23T10:31:32.956Z,95371.7
2018-09-23T10:32:35.462Z,95367.9
2018-09-23T10:33:37.659Z,95367.8
2018-09-23T10:34:40.090Z,95363.8
2018-09-23T10:35:42.525Z,95369
2018-09-23T10:36:44.964Z,95366
2018-09-23T10:37:47.106Z,95359.9
2018-09-23T10:38:49.563Z,95362.8
2018-09-23T10:39:52.002Z,95358.8
2018-09-23T10:40:54.438Z,95369.2
2018-09-23T10:41:56.874Z,95359.9
2018-09-23T10:42:59.308Z,95357.9
2018-09-23T10:44:01.760Z,95367.7
2018-09-23T10:45:04.201Z,95366.7
2018-09-23T10:46:06.648Z,95355.6
2018-09-23T10:47:09.083Z,95359
2018-09-23T10:48:11.253Z,95351.9
2018-09-23T10:49:13.730Z,95352.5
2018-09-23T10:50:16.164Z,95349.5
2018-09-23T10:51:18.606Z,95347.6
2018-09-23T10:52:21.045Z,95346.5
2018-09-23T10:53:23.492Z,95349.3
2018-09-23T10:54:25.927Z,95351.3
2018-09-23T10:55:27.894Z,95350.4
2018-09-23T10:56:30.429Z,95349.7
2018-09-23T10:57:32.651Z,95341.3
2018-09-23T10:58:35.088Z,95349.9
2018-09-23T10:59:37.825Z,95349
2018-09-23T11:00:39.976Z,95341.3
2018-09-23T11:01:42.407Z,95347.9
2018-09-23T11:02:44.591Z,95345.8
2018-09-23T11:03:47.400Z,95345.8
2018-09-23T11:04:49.750Z,95346.8
2018-09-23T11:05:52.183Z,95340.7
2018-09-23T11:06:54.625Z,95337.4
2018-09-23T11:07:57.063Z,95338.8
2018-09-23T11:08:59.220Z,95335.2
2018-09-23T11:10:01.648Z,95332.1
2018-09-23T11:11:04.081Z,95333.5
2018-09-23T11:12:06.526Z,95329.3
2018-09-23T11:13:08.685Z,95326.6
2018-09-23T11:14:11.122Z,95328.6
2018-09-23T11:15:13.672Z,95320
2018-09-23T11:16:16.146Z,95321.5
2018-09-23T11:17:18.593Z,95321.7
2018-09-23T11:18:21.056Z,95317.7
2018-09-23T11:19:23.504Z,95315.1
2018-09-23T11:20:25.936Z,95313.7
2018-09-23T11:21:28.383Z,95302.3
2018-09-23T11:22:30.818Z,95300.9
2018-09-23T11:23:33.501Z,95296
2018-09-23T11:24:36.018Z,95299.8
2018-09-23T11:25:38.150Z,95283.2
2018-09-23T11:26:40.583Z,95284.7
2018-09-23T11:27:43.026Z,95283.7
2018-09-23T11:28:45.468Z,95271
2018-09-23T11:29:47.917Z,95285.1
2018-09-23T11:30:50.593Z,95279.4
2018-09-23T11:31:52.794Z,95271.2
2018-09-23T11:32:55.234Z,95264.5
2018-09-23T11:33:57.398Z,95268.7
2018-09-23T11:34:59.844Z,95271.8
2018-09-23T11:36:02.288Z,95252.9
2018-09-23T11:37:04.718Z,95254.7
2018-09-23T11:38:07.156Z,95253.5
2018-09-23T11:39:09.595Z,95249.3
2018-09-23T11:40:12.037Z,95247.6
2018-09-23T11:41:14.469Z,95250.4
2018-09-23T11:42:16.894Z,95241.9
2018-09-23T11:43:19.337Z,95247.3
2018-09-23T11:44:21.515Z,95239.4
2018-09-23T11:45:23.974Z,95236.3
2018-09-23T11:46:26.421Z,95252.3
2018-09-23T11:47:28.582Z,95226.9
2018-09-23T11:48:31.058Z,95232.2
2018-09-23T11:49:33.220Z,95231
2018-09-23T11:50:35.673Z,95216
2018-09-23T11:51:38.136Z,95212.4
2018-09-23T11:52:40.573Z,95222.4
2018-09-23T11:53:42.713Z,95222.9
2018-09-23T11:54:45.158Z,95205.4
2018-09-23T11:55:47.608Z,95202.4
2018-09-23T11:56:50.048Z,95193.4
2018-09-23T11:57:52.241Z,95202.6
2018-09-23T11:58:54.984Z,95212.2
2018-09-23T11:59:57.435Z,95195.9
2018-09-23T12:00:59.875Z,95193.3
2018-09-23T12:02:02.393Z,95199.3
2018-09-23T12:03:04.860Z,95198.7
2018-09-23T12:04:07.334Z,95198.5
2018-09-23T12:05:09.499Z,95186.9
2018-09-23T12:06:11.948Z,95191.9
2018-09-23T12:07:14.389Z,95190.8
2018-09-23T12:08:16.840Z,95185.5
2018-09-23T12:09:19.288Z,95179.6
2018-09-23T12:10:21.804Z,95186.9
2018-09-23T12:11:24.365Z,95166.5
2018-09-23T12:12:26.808Z,95171.2
2018-09-23T12:13:29.257Z,95164.4
2018-09-23T12:14:31.822Z,95169.1
2018-09-23T12:15:34.425Z,95173.1
2018-09-23T12:16:36.918Z,95159.5
2018-09-23T12:17:39.355Z,95169
2018-09-23T12:18:41.800Z,95160.3
2018-09-23T12:19:44.240Z,95173.7
2018-09-23T12:20:46.690Z,95161
2018-09-23T12:21:48.855Z,95165.1
2018-09-23T12:22:51.314Z,95160.6
2018-09-23T12:23:53.753Z,95163.4
2018-09-23T12:24:56.195Z,95153.7
2018-09-23T12:25:59.199Z,95151.4
2018-09-23T12:27:01.559Z,95153.4
2018-09-23T12:28:04.006Z,95144.4
2018-09-23T12:29:06.444Z,95136.4
2018-09-23T12:30:08.888Z,95153.8
2018-09-23T12:31:11.326Z,95138.5
2018-09-23T12:32:13.781Z,95173.6
2018-09-23T12:33:16.554Z,95132.7
2018-09-23T12:34:19.139Z,95137.7
2018-09-23T12:35:21.294Z,95131.4
2018-09-23T12:36:23.723Z,95120.2
2018-09-23T12:37:26.167Z,95116.4
2018-09-23T12:38:28.603Z,95135.1